Time;durP1;ratioP1;P1;durP2;ratioP2;P2;SDS_P1;SDS_P2;PMS_P1;PMS_P2;Temp;Humidity;BMP_temperature;BMP_pressure;BME280_temperature;BME280_humidity;BME280_pressure;Samples;Min_cycle;Max_cycle;Signal;HPM_P1;HPM_P2
2023/01/23 00:01:31;;;;;;;11.48;5.00;;;;;;;3.84;100.00;99567.94;4533006;31;20500;-72
2023/01/23 00:03:59;;;;;;;11.00;5.37;;;;;;;3.83;100.00;99566.25;4533302;31;20114;-73
2023/01/23 00:06:27;;;;;;;12.70;4.95;;;;;;;3.93;100.00;99570.06;4533158;31;20126;-73
2023/01/23 00:08:55;;;;;;;13.32;5.37;;;;;;;3.96;100.00;99566.50;4532987;31;20122;-72
2023/01/23 00:11:25;;;;;;;13.32;5.15;;;;;;;3.96;100.00;99562.16;4533280;31;20431;-72
2023/01/23 00:13:52;;;;;;;10.18;4.85;;;;;;;3.86;100.00;99554.00;4532832;31;20118;-73
2023/01/23 00:16:22;;;;;;;8.85;5.00;;;;;;;4.01;100.00;99543.78;4533134;31;20087;-73
2023/01/23 00:18:50;;;;;;;8.70;4.47;;;;;;;4.06;100.00;99550.41;4532842;31;20280;-73
2023/01/23 00:21:19;;;;;;;17.48;5.12;;;;;;;4.02;100.00;99551.47;4533014;31;20515;-72
2023/01/23 00:23:49;;;;;;;12.65;4.90;;;;;;;4.11;100.00;99550.19;4533138;31;20091;-73
2023/01/23 00:26:20;;;;;;;8.60;4.68;;;;;;;4.09;100.00;99542.47;4532868;31;20097;-72
2023/01/23 00:28:49;;;;;;;11.35;4.68;;;;;;;4.09;100.00;99544.25;4533176;31;20445;-73
2023/01/23 00:31:23;;;;;;;12.30;4.82;;;;;;;4.13;100.00;99547.50;4532937;31;20091;-73
2023/01/23 00:33:56;;;;;;;11.95;4.82;;;;;;;4.11;100.00;99552.78;4533062;31;20162;-73
2023/01/23 00:36:27;;;;;;;11.65;4.18;;;;;;;4.08;100.00;99556.34;4533157;31;20462;-73
2023/01/23 00:38:55;;;;;;;13.05;5.40;;;;;;;4.07;100.00;99552.09;4532922;31;20515;-73
2023/01/23 00:41:22;;;;;;;12.37;5.07;;;;;;;4.11;100.00;99550.19;4532722;31;20083;-73
2023/01/23 00:43:51;;;;;;;10.98;5.28;;;;;;;4.02;100.00;99541.09;4532782;31;20150;-73
2023/01/23 00:46:19;;;;;;;10.32;4.68;;;;;;;4.07;100.00;99543.47;4532766;31;20143;-73
2023/01/23 00:48:47;;;;;;;12.65;5.12;;;;;;;4.09;100.00;99546.84;4532707;31;20095;-73
2023/01/23 00:51:14;;;;;;;12.20;6.07;;;;;;;4.09;100.00;99552.84;4533185;31;20391;-73
2023/01/23 00:53:42;;;;;;;12.65;5.22;;;;;;;4.06;100.00;99553.00;4532750;31;20117;-72
2023/01/23 00:56:09;;;;;;;11.70;5.12;;;;;;;3.99;100.00;99569.78;4532636;31;20091;-72
2023/01/23 00:58:37;;;;;;;11.25;5.57;;;;;;;4.11;100.00;99570.94;4532595;31;20479;-73
2023/01/23 01:01:04;;;;;;;11.90;5.45;;;;;;;4.15;100.00;99564.69;4532315;31;20117;-73
2023/01/23 01:03:32;;;;;;;8.93;4.57;;;;;;;4.00;100.00;99557.66;4531698;31;20468;-73
2023/01/23 01:06:01;;;;;;;11.68;5.70;;;;;;;3.99;100.00;99545.63;4532495;31;20576;-72
2023/01/23 01:08:28;;;;;;;12.52;5.28;;;;;;;4.00;100.00;99548.12;4532429;31;20106;-73
2023/01/23 01:10:56;;;;;;;17.75;6.32;;;;;;;3.97;100.00;99545.69;4532524;31;20159;-73
2023/01/23 01:13:24;;;;;;;8.98;4.22;;;;;;;3.97;100.00;99547.44;4532818;31;20095;-72
2023/01/23 01:15:52;;;;;;;14.13;5.70;;;;;;;3.92;100.00;99539.88;4532520;31;20111;-72
2023/01/23 01:18:20;;;;;;;13.23;5.72;;;;;;;3.97;100.00;99537.09;4532505;31;20179;-72
2023/01/23 01:20:48;;;;;;;9.85;5.03;;;;;;;3.95;100.00;99542.34;4532339;31;20091;-73
2023/01/23 01:23:16;;;;;;;10.18;4.70;;;;;;;4.01;100.00;99543.78;4532420;31;20146;-73
2023/01/23 01:25:43;;;;;;;12.50;4.82;;;;;;;4.09;100.00;99539.06;4532515;31;20463;-72
2023/01/23 01:28:11;;;;;;;11.27;5.00;;;;;;;4.09;100.00;99534.69;4532367;31;20501;-73
2023/01/23 01:30:39;;;;;;;13.73;5.37;;;;;;;4.12;100.00;99538.91;4532395;31;20462;-73
2023/01/23 01:33:07;;;;;;;10.80;4.45;;;;;;;4.09;100.00;99534.69;4532194;31;20107;-73
2023/01/23 01:35:34;;;;;;;11.90;4.82;;;;;;;4.07;100.00;99533.94;4532325;31;20121;-73
2023/01/23 01:38:01;;;;;;;12.13;5.25;;;;;;;4.09;100.00;99539.06;4532285;31;20122;-72
2023/01/23 01:40:32;;;;;;;10.23;4.85;;;;;;;4.09;100.00;99541.66;4531895;31;20091;-73
2023/01/23 01:43:03;;;;;;;8.90;4.40;;;;;;;4.16;100.00;99535.22;4532359;31;20087;-72
2023/01/23 01:46:07;;;;;;;7.87;4.40;;;;;;;4.18;100.00;99537.72;4531990;31;20084;-72
2023/01/23 01:48:37;;;;;;;10.73;3.90;;;;;;;4.20;100.00;99534.16;4532046;31;20106;-72
2023/01/23 01:51:25;;;;;;;9.25;4.40;;;;;;;4.27;100.00;99537.28;4532061;31;20083;-72
2023/01/23 01:54:04;;;;;;;7.65;4.00;;;;;;;4.34;100.00;99538.63;4532291;31;20141;-73
2023/01/23 01:56:36;;;;;;;8.45;3.80;;;;;;;4.42;100.00;99531.31;4531955;31;20110;-72
2023/01/23 01:59:03;;;;;;;6.95;4.05;;;;;;;4.43;100.00;99530.38;4530491;31;22410;-73
2023/01/23 02:01:30;;;;;;;11.75;4.28;;;;;;;4.49;100.00;99528.41;4530640;31;20125;-73
2023/01/23 02:03:58;;;;;;;6.75;4.25;;;;;;;4.38;100.00;99524.59;4531928;31;20206;-73
2023/01/23 02:06:26;;;;;;;8.60;4.18;;;;;;;4.54;100.00;99531.59;4531694;31;20590;-73
2023/01/23 02:08:56;;;;;;;8.68;3.87;;;;;;;4.55;100.00;99528.09;4531851;31;20121;-73
2023/01/23 02:11:24;;;;;;;8.63;3.50;;;;;;;4.51;100.00;99535.19;4515983;31;20095;-73
2023/01/23 02:13:54;;;;;;;8.57;4.03;;;;;;;4.54;100.00;99531.59;4518014;31;20162;-73
2023/01/23 02:16:30;;;;;;;8.27;3.90;;;;;;;4.54;100.00;99527.25;4517748;31;20084;-73
2023/01/23 02:19:01;;;;;;;6.53;3.28;;;;;;;4.55;100.00;99522.88;4503916;31;20095;-73
2023/01/23 02:21:28;;;;;;;8.80;4.53;;;;;;;4.54;100.00;99519.47;4506030;31;20488;-73
2023/01/23 02:24:30;;;;;;;5.95;3.28;;;;;;;4.57;100.00;99524.50;4533937;31;20112;-73
2023/01/23 02:26:57;;;;;;;8.93;3.25;;;;;;;4.61;100.00;99523.38;4534099;31;20080;-73
2023/01/23 02:29:25;;;;;;;7.68;3.62;;;;;;;4.57;100.00;99527.09;4533888;31;20106;-73
2023/01/23 02:31:54;;;;;;;7.82;3.22;;;;;;;4.63;100.00;99531.09;4533933;31;20095;-73
2023/01/23 02:34:24;;;;;;;6.78;3.33;;;;;;;4.46;100.00;99531.97;4533855;31;20544;-73
2023/01/23 02:36:52;;;;;;;5.57;3.33;;;;;;;4.42;100.00;99533.06;4533539;31;20139;-73
2023/01/23 02:39:20;;;;;;;4.18;2.47;;;;;;;4.51;100.00;99526.56;4532508;31;20096;-73
2023/01/23 02:41:49;;;;;;;6.15;2.55;;;;;;;4.53;100.00;99532.53;4533779;31;20118;-73
2023/01/23 02:44:25;;;;;;;7.00;3.22;;;;;;;4.68;100.00;99530.84;4533962;31;20114;-73
2023/01/23 02:46:55;;;;;;;9.13;3.40;;;;;;;4.74;100.00;99533.97;4533899;31;20087;-73
2023/01/23 02:49:24;;;;;;;5.03;2.85;;;;;;;4.78;100.00;99530.31;4533881;31;20119;-73
2023/01/23 02:51:52;;;;;;;5.28;2.55;;;;;;;4.80;100.00;99523.28;4533568;31;20531;-72
2023/01/23 02:54:21;;;;;;;4.70;2.95;;;;;;;4.82;100.00;99509.38;4533637;31;20122;-73
2023/01/23 02:56:49;;;;;;;5.55;2.83;;;;;;;4.77;100.00;99507.88;4533662;31;20075;-73
2023/01/23 03:02:04;;;;;;;6.10;2.35;;;;;;;4.77;100.00;99512.22;4533342;31;20095;-73
2023/01/23 03:04:31;;;;;;;5.07;2.42;;;;;;;4.65;100.00;99513.72;4533860;31;20087;-73
2023/01/23 03:06:58;;;;;;;5.60;3.05;;;;;;;4.64;100.00;99504.25;4533354;31;20095;-73
2023/01/23 03:09:26;;;;;;;4.18;2.55;;;;;;;4.63;100.00;99507.75;4533625;31;20539;-73
2023/01/23 03:11:53;;;;;;;4.65;2.80;;;;;;;4.66;100.00;99502.38;4533074;31;20099;-73
2023/01/23 03:14:22;;;;;;;5.05;2.25;;;;;;;4.69;100.00;99504.00;4533720;31;20146;-73
2023/01/23 03:16:52;;;;;;;6.60;2.72;;;;;;;4.63;100.00;99505.16;4533580;31;20586;-73
2023/01/23 03:19:23;;;;;;;4.80;2.25;;;;;;;4.61;100.00;99502.62;4533650;31;20115;-73
2023/01/23 03:21:51;;;;;;;4.30;2.47;;;;;;;4.73;100.00;99510.69;4533390;31;20091;-73
2023/01/23 03:24:19;;;;;;;3.85;2.42;;;;;;;4.77;100.00;99500.06;4533380;31;20142;-73
2023/01/23 03:26:47;;;;;;;6.07;2.70;;;;;;;4.68;100.00;99499.72;4533290;31;20092;-73
2023/01/23 03:32:11;;;;;;;2.72;1.60;;;;;;;4.73;100.00;99484.75;4533364;31;20094;-73
2023/01/23 03:34:38;;;;;;;5.68;2.40;;;;;;;4.71;100.00;99482.25;4533380;31;20091;-73
2023/01/23 03:37:06;;;;;;;3.60;2.22;;;;;;;4.73;100.00;99484.75;4533491;31;20483;-73
2023/01/23 03:42:21;;;;;;;5.53;2.40;;;;;;;4.79;100.00;99485.25;4533600;31;20091;-73
2023/01/23 03:44:50;;;;;;;3.97;2.20;;;;;;;4.85;100.00;99483.25;4533760;31;20102;-73
2023/01/23 03:47:19;;;;;;;3.53;1.80;;;;;;;4.88;100.00;99485.69;4533658;31;20096;-73
2023/01/23 03:49:47;;;;;;;5.03;2.30;;;;;;;4.88;100.00;99483.91;4533611;31;20496;-73
2023/01/23 03:52:14;;;;;;;5.30;3.00;;;;;;;4.85;100.00;99488.44;4533236;31;20086;-73
2023/01/23 03:54:41;;;;;;;5.18;2.37;;;;;;;4.90;100.00;99476.03;4533794;31;20098;-73
2023/01/23 03:57:09;;;;;;;7.18;2.25;;;;;;;4.97;100.00;99482.59;4533284;31;20114;-73
2023/01/23 03:59:39;;;;;;;4.22;1.98;;;;;;;5.02;100.00;99484.94;4533849;31;20458;-73
2023/01/23 04:02:06;;;;;;;4.55;2.28;;;;;;;5.09;100.00;99483.69;4533203;31;20099;-73
2023/01/23 04:04:34;;;;;;;6.55;2.45;;;;;;;5.08;100.00;99477.63;4533331;31;20090;-73
2023/01/23 04:07:02;;;;;;;5.18;1.87;;;;;;;5.10;100.00;99482.72;4533372;31;20172;-73
2023/01/23 04:09:29;;;;;;;3.15;2.00;;;;;;;5.04;100.00;99488.25;4533377;31;20114;-73
2023/01/23 04:11:58;;;;;;;5.12;2.58;;;;;;;5.09;100.00;99487.09;4533207;31;20095;-73
2023/01/23 04:14:29;;;;;;;3.35;2.12;;;;;;;5.10;100.00;99493.97;4533145;31;20147;-73
2023/01/23 04:16:58;;;;;;;3.78;2.28;;;;;;;5.12;100.00;99489.53;4518512;31;20156;-73
2023/01/23 04:19:25;;;;;;;4.03;1.83;;;;;;;5.19;100.00;99486.59;4533085;31;20087;-73
2023/01/23 04:21:52;;;;;;;4.68;2.40;;;;;;;5.12;100.00;99483.50;4533209;31;20099;-73
2023/01/23 04:24:19;;;;;;;7.60;2.15;;;;;;;5.12;100.00;99494.72;4533403;31;20110;-73
2023/01/23 04:26:46;;;;;;;4.03;1.80;;;;;;;5.29;100.00;99488.59;4533201;31;20106;-73
2023/01/23 04:29:13;;;;;;;4.57;2.40;;;;;;;5.39;100.00;99488.91;4533185;31;20175;-73
2023/01/23 04:31:42;;;;;;;4.65;2.55;;;;;;;5.51;100.00;99488.22;4533179;31;20121;-73
2023/01/23 04:34:11;;;;;;;4.32;2.45;;;;;;;5.57;100.00;99491.37;4532490;31;20376;-73
2023/01/23 04:36:38;;;;;;;3.85;2.10;;;;;;;5.51;100.00;99496.03;4532953;31;20519;-73
2023/01/23 04:39:06;;;;;;;4.00;2.40;;;;;;;5.54;100.00;99487.22;4532941;31;20100;-73
2023/01/23 04:41:34;;;;;;;3.40;1.85;;;;;;;5.59;100.00;99485.19;4532899;31;20463;-73
2023/01/23 04:44:19;;;;;;;5.43;2.87;;;;;;;5.62;100.00;99490.22;4533071;31;20138;-73
2023/01/23 04:46:49;;;;;;;7.62;2.17;;;;;;;5.65;100.00;99484.00;4533156;31;20597;-73
2023/01/23 04:49:18;;;;;;;3.95;2.10;;;;;;;5.68;100.00;99484.66;4533053;31;20135;-73
2023/01/23 04:51:47;;;;;;;4.55;2.08;;;;;;;5.56;100.00;99479.34;4532698;31;20136;-73
2023/01/23 04:54:16;;;;;;;4.00;2.17;;;;;;;5.58;100.00;99487.88;4532878;31;20083;-73
2023/01/23 04:56:44;;;;;;;4.93;2.22;;;;;;;5.64;100.00;99483.16;4532984;31;20088;-73
2023/01/23 04:59:13;;;;;;;3.37;1.98;;;;;;;5.72;100.00;99489.69;4532950;31;20107;-73
2023/01/23 05:01:41;;;;;;;4.30;2.17;;;;;;;5.77;100.00;99491.09;4532758;31;20159;-73
2023/01/23 05:04:09;;;;;;;4.15;2.00;;;;;;;5.78;100.00;99495.34;4532542;31;20098;-73
2023/01/23 05:06:36;;;;;;;5.60;2.20;;;;;;;5.84;100.00;99508.03;4533006;31;20119;-73
2023/01/23 05:09:04;;;;;;;3.97;1.90;;;;;;;5.80;100.00;99498.72;4531318;31;20156;-73
2023/01/23 05:11:33;;;;;;;3.33;1.90;;;;;;;5.84;100.00;99501.97;4532671;31;20099;-73
2023/01/23 05:14:01;;;;;;;3.17;2.12;;;;;;;5.89;100.00;99512.09;4532654;31;20188;-73
2023/01/23 05:16:28;;;;;;;4.57;2.10;;;;;;;5.86;100.00;99510.53;4532795;31;20087;-73
2023/01/23 05:18:57;;;;;;;3.35;1.83;;;;;;;5.91;100.00;99513.69;4532634;31;20160;-73
2023/01/23 05:21:24;;;;;;;3.80;2.08;;;;;;;5.93;100.00;99508.41;4532666;31;20111;-73
2023/01/23 05:23:51;;;;;;;3.72;2.08;;;;;;;5.94;100.00;99510.91;4532335;31;20121;-73
2023/01/23 05:26:18;;;;;;;3.20;1.90;;;;;;;5.87;100.00;99512.19;4532677;31;20087;-73
2023/01/23 05:28:46;;;;;;;4.10;2.17;;;;;;;5.80;100.00;99518.69;4532263;31;20131;-73
2023/01/23 05:31:14;;;;;;;3.37;1.85;;;;;;;5.77;100.00;99519.69;4524618;31;20195;-73
2023/01/23 05:33:41;;;;;;;5.45;2.53;;;;;;;5.78;100.00;99504.91;4517023;31;20148;-73
2023/01/23 05:36:09;;;;;;;3.92;2.35;;;;;;;5.89;100.00;99517.28;4516526;31;20087;-73
2023/01/23 05:38:37;;;;;;;3.53;2.25;;;;;;;5.81;100.00;99525.53;4516169;31;20384;-73
2023/01/23 05:41:04;;;;;;;4.20;2.15;;;;;;;5.80;100.00;99526.50;4517882;31;20112;-73
2023/01/23 05:43:33;;;;;;;5.40;2.62;;;;;;;5.85;100.00;99524.44;4517144;31;20110;-73
2023/01/23 05:46:01;;;;;;;3.62;2.17;;;;;;;5.84;100.00;99520.16;4516588;31;20112;-73
2023/01/23 05:48:29;;;;;;;5.37;2.40;;;;;;;5.87;100.00;99527.78;4520063;31;20103;-73
2023/01/23 05:50:56;;;;;;;3.80;2.28;;;;;;;5.86;100.00;99513.97;4531611;31;20114;-73
2023/01/23 05:53:25;;;;;;;7.18;2.45;;;;;;;5.91;100.00;99520.66;4534001;31;20100;-73
2023/01/23 05:55:52;;;;;;;4.82;2.40;;;;;;;5.92;100.00;99528.37;4529859;31;20083;-73
2023/01/23 05:58:19;;;;;;;3.65;2.40;;;;;;;5.90;100.00;99530.22;4517513;31;20123;-73
2023/01/23 06:00:47;;;;;;;5.55;2.67;;;;;;;5.89;100.00;99535.50;4517541;31;20095;-73
2023/01/23 06:03:15;;;;;;;4.50;2.30;;;;;;;5.93;100.00;99550.84;4517829;31;20559;-73
2023/01/23 06:05:43;;;;;;;3.05;2.17;;;;;;;6.00;100.00;99534.00;4516864;31;20103;-73
2023/01/23 06:08:11;;;;;;;6.00;2.35;;;;;;;6.03;100.00;99546.81;4525902;31;20111;-72
2023/01/23 06:10:40;;;;;;;6.40;2.83;;;;;;;5.99;100.00;99541.88;4522023;31;20117;-73
2023/01/23 06:13:07;;;;;;;4.70;2.53;;;;;;;6.00;100.00;99546.16;4523191;31;20158;-73
2023/01/23 06:15:35;;;;;;;5.18;2.55;;;;;;;5.97;100.00;99547.16;4523596;31;20095;-72
2023/01/23 06:18:03;;;;;;;3.53;2.33;;;;;;;6.00;100.00;99547.00;4518689;31;20130;-72
2023/01/23 06:20:30;;;;;;;5.10;2.80;;;;;;;5.99;100.00;99550.50;4517055;31;20107;-73
2023/01/23 06:22:57;;;;;;;7.47;2.78;;;;;;;5.99;100.00;99560.09;4521309;31;20095;-73
2023/01/23 06:25:25;;;;;;;4.93;2.33;;;;;;;5.99;100.00;99560.09;4522841;31;20195;-73
2023/01/23 06:27:53;;;;;;;6.22;2.87;;;;;;;6.00;100.00;99561.78;4517766;31;20535;-73
2023/01/23 06:30:22;;;;;;;3.65;2.40;;;;;;;6.07;100.00;99563.09;4517976;31;20132;-73
2023/01/23 06:32:49;;;;;;;5.22;2.40;;;;;;;6.07;100.00;99568.31;4524106;31;20095;-73
2023/01/23 06:35:18;;;;;;;7.43;2.60;;;;;;;6.07;100.00;99572.66;4522657;31;20171;-74
2023/01/23 06:37:45;;;;;;;4.62;2.67;;;;;;;6.10;100.00;99577.66;4523215;31;20108;-74
2023/01/23 06:40:13;;;;;;;4.78;2.80;;;;;;;6.10;100.00;99575.06;4522109;31;20193;-74
2023/01/23 06:42:41;;;;;;;7.87;3.22;;;;;;;6.20;100.00;99584.84;4528717;31;20472;-74
2023/01/23 06:45:10;;;;;;;6.75;3.40;;;;;;;6.16;100.00;99583.38;4532463;31;20103;-75
2023/01/23 06:47:37;;;;;;;4.55;2.72;;;;;;;6.19;100.00;99587.53;4531534;31;20122;-75
2023/01/23 06:50:08;;;;;;;5.35;2.58;;;;;;;6.18;100.00;99578.91;4524752;31;20094;-75
2023/01/23 06:52:35;;;;;;;5.90;2.78;;;;;;;6.28;100.00;99591.38;4520338;31;20159;-73
2023/01/23 06:55:02;;;;;;;7.03;3.30;;;;;;;6.30;100.00;99585.16;4529673;31;20087;-74
2023/01/23 06:57:30;;;;;;;4.32;2.50;;;;;;;6.31;100.00;99584.22;4531818;31;20099;-73
2023/01/23 06:59:58;;;;;;;5.40;2.37;;;;;;;6.33;100.00;99592.78;4524050;31;20156;-72
2023/01/23 07:02:25;;;;;;;4.57;2.60;;;;;;;6.41;100.00;99592.34;4531288;31;20103;-74
2023/01/23 07:04:53;;;;;;;4.55;2.55;;;;;;;6.36;100.00;99608.22;4529820;31;20113;-73
2023/01/23 07:07:21;;;;;;;4.07;2.83;;;;;;;6.41;100.00;99610.56;4526037;31;20091;-73
2023/01/23 07:09:48;;;;;;;7.57;3.65;;;;;;;6.39;100.00;99607.22;4519782;31;20153;-73
2023/01/23 07:12:16;;;;;;;10.55;2.75;;;;;;;6.42;100.00;99609.66;4514918;31;20107;-73
2023/01/23 07:14:43;;;;;;;6.18;2.78;;;;;;;6.44;100.00;99607.78;4518589;31;20106;-73
2023/01/23 07:17:11;;;;;;;5.35;3.00;;;;;;;6.39;100.00;99605.44;4518108;31;20119;-74
2023/01/23 07:19:39;;;;;;;8.85;3.92;;;;;;;6.44;100.00;99607.78;4519185;31;20125;-74
2023/01/23 07:22:06;;;;;;;7.28;3.20;;;;;;;6.51;100.00;99611.69;4522048;31;20154;-72
2023/01/23 07:24:34;;;;;;;5.75;2.80;;;;;;;6.54;100.00;99615.88;4520186;31;20118;-73
2023/01/23 07:27:01;;;;;;;7.40;3.00;;;;;;;6.55;100.00;99607.13;4524768;31;20135;-72
2023/01/23 07:29:28;;;;;;;6.43;3.15;;;;;;;6.52;100.00;99607.31;4524778;31;20133;-71
2023/01/23 07:31:57;;;;;;;8.10;3.58;;;;;;;6.52;100.00;99612.53;4515118;31;20150;-72
2023/01/23 07:34:24;;;;;;;8.93;2.95;;;;;;;6.63;100.00;99611.87;4525635;31;20155;-72
2023/01/23 07:36:51;;;;;;;9.80;3.50;;;;;;;6.62;100.00;99623.25;4525152;31;20111;-72
2023/01/23 07:39:19;;;;;;;6.95;2.72;;;;;;;6.65;100.00;99617.88;4520674;31;20181;-73
2023/01/23 07:41:49;;;;;;;6.62;3.03;;;;;;;6.73;100.00;99610.41;4522485;31;20145;-75
2023/01/23 07:44:18;;;;;;;7.40;2.87;;;;;;;6.75;100.00;99612.00;4520888;31;20139;-74
2023/01/23 07:46:46;;;;;;;8.48;3.80;;;;;;;6.78;100.00;99617.94;4520615;31;20123;-74
2023/01/23 07:49:14;;;;;;;6.87;3.28;;;;;;;6.75;100.00;99622.44;4516616;31;20087;-74
2023/01/23 07:51:41;;;;;;;4.22;2.42;;;;;;;6.74;100.00;99622.53;4521943;31;20126;-73
2023/01/23 07:54:09;;;;;;;6.20;3.22;;;;;;;6.88;100.00;99619.09;4522373;31;20149;-73
2023/01/23 07:56:36;;;;;;;4.15;2.35;;;;;;;6.99;100.00;99627.06;4529455;31;20100;-72
2023/01/23 07:59:03;;;;;;;6.95;3.78;;;;;;;6.99;100.00;99621.03;4518900;31;20118;-72
2023/01/23 08:01:30;;;;;;;5.35;2.97;;;;;;;7.08;100.00;99608.28;4521301;31;20128;-72
2023/01/23 08:03:58;;;;;;;8.18;3.75;;;;;;;7.05;100.00;99618.06;4519636;31;20532;-73
2023/01/23 08:06:25;;;;;;;4.80;2.53;;;;;;;7.11;100.00;99617.69;4516747;31;20127;-71
2023/01/23 08:08:52;;;;;;;6.20;2.83;;;;;;;7.20;100.00;99619.72;4513842;31;20761;-74
2023/01/23 08:11:20;;;;;;;5.82;3.50;;;;;;;7.29;100.00;99613.94;4518824;31;20475;-74
2023/01/23 08:13:50;;;;;;;6.57;3.55;;;;;;;7.20;100.00;99635.34;4518824;31;20114;-72
2023/01/23 08:16:17;;;;;;;12.32;4.22;;;;;;;7.32;100.00;99617.28;4523958;31;20194;-73
2023/01/23 08:18:44;;;;;;;6.82;3.67;;;;;;;7.38;100.00;99630.78;4525699;31;20142;-74
2023/01/23 08:21:11;;;;;;;6.25;3.50;;;;;;;7.32;100.00;99632.94;4517644;31;20091;-71
2023/01/23 08:23:39;;;;;;;6.95;3.67;;;;;;;7.38;100.00;99637.75;4520483;31;20091;-73
2023/01/23 08:26:08;;;;;;;5.80;3.53;;;;;;;7.36;100.00;99626.56;4516592;31;20596;-73
2023/01/23 08:28:35;;;;;;;6.32;4.07;;;;;;;7.38;100.00;99624.72;4515446;31;20497;-73
2023/01/23 08:31:06;;;;;;;6.93;3.85;;;;;;;7.40;100.00;99622.84;4518026;31;20137;-73
2023/01/23 08:33:34;;;;;;;6.55;3.75;;;;;;;7.34;100.00;99629.28;4521584;31;20100;-76
2023/01/23 08:36:03;;;;;;;7.43;3.42;;;;;;;7.42;100.00;99628.81;4517189;31;20124;-74
2023/01/23 08:38:30;;;;;;;4.80;2.80;;;;;;;7.45;100.00;99624.25;4520059;31;20161;-75
2023/01/23 08:41:00;;;;;;;6.65;3.78;;;;;;;7.38;100.00;99627.34;4519632;31;20083;-73
2023/01/23 08:43:28;;;;;;;9.50;3.50;;;;;;;7.35;100.00;99640.56;4520032;31;20164;-74
2023/01/23 08:45:56;;;;;;;7.62;3.70;;;;;;;7.30;100.00;99633.03;4525424;31;20103;-73
2023/01/23 08:48:25;;;;;;;8.02;4.00;;;;;;;7.35;100.00;99648.38;4527715;31;20121;-76
2023/01/23 08:50:59;;;;;;;5.53;3.22;;;;;;;7.31;100.00;99655.53;4517271;31;89195;-73
2023/01/23 08:53:27;;;;;;;9.35;3.78;;;;;;;7.44;100.00;99640.00;4527415;31;20143;-73
2023/01/23 08:55:58;;;;;;;10.23;3.87;;;;;;;7.39;100.00;99648.09;4520237;31;20167;-73
2023/01/23 08:58:26;;;;;;;7.78;3.72;;;;;;;7.47;100.00;99639.78;4527519;31;20380;-73
2023/01/23 09:00:53;;;;;;;7.18;3.87;;;;;;;7.34;100.00;99649.31;4519691;31;20083;-73
2023/01/23 09:03:21;;;;;;;6.28;3.67;;;;;;;7.34;100.00;99644.91;4523729;31;20103;-72
2023/01/23 09:05:48;;;;;;;10.68;3.70;;;;;;;7.37;100.00;99643.91;4512323;31;20099;-73
2023/01/23 09:08:15;;;;;;;8.52;4.03;;;;;;;7.53;100.00;99649.84;4516704;31;20115;-72
2023/01/23 09:10:43;;;;;;;7.37;3.28;;;;;;;7.60;100.00;99652.88;4520040;31;20156;-71
2023/01/23 09:13:10;;;;;;;8.77;3.97;;;;;;;7.63;100.00;99650.94;4523355;31;20154;-72
2023/01/23 09:15:38;;;;;;;8.35;4.20;;;;;;;7.66;100.00;99656.88;4513976;31;20151;-72
2023/01/23 09:18:05;;;;;;;7.45;4.43;;;;;;;7.82;100.00;99653.19;4515798;31;20103;-72
2023/01/23 09:20:33;;;;;;;9.88;3.80;;;;;;;7.81;100.00;99648.94;4514698;31;20453;-71
2023/01/23 09:23:00;;;;;;;9.38;3.83;;;;;;;7.79;100.00;99642.97;4522674;31;20868;-72
2023/01/23 09:25:30;;;;;;;9.95;3.90;;;;;;;7.97;100.00;99654.00;4515320;31;20145;-72
2023/01/23 09:27:57;;;;;;;8.57;4.53;;;;;;;8.07;100.00;99648.19;4519420;31;20171;-72
2023/01/23 09:30:24;;;;;;;9.90;3.80;;;;;;;8.18;100.00;99640.50;4521761;31;20157;-72
2023/01/23 09:32:52;;;;;;;7.10;4.20;;;;;;;8.26;100.00;99646.06;4516658;31;20100;-72
2023/01/23 09:35:19;;;;;;;9.55;4.68;;;;;;;8.45;100.00;99644.91;4516203;31;20111;-72
2023/01/23 09:37:58;;;;;;;7.50;4.15;;;;;;;8.58;100.00;99650.13;4521462;31;20087;-74
2023/01/23 09:40:32;;;;;;;6.25;3.42;;;;;;;8.79;100.00;99646.06;4501778;31;20119;-74
2023/01/23 09:43:07;;;;;;;7.47;3.83;;;;;;;9.00;100.00;99642.94;4507289;31;20253;-74
2023/01/23 09:45:35;;;;;;;5.93;3.78;;;;;;;9.23;100.00;99650.03;4521995;31;20096;-74
2023/01/23 09:48:28;;;;;;;10.60;3.65;;;;;;;9.10;100.00;99643.97;4515648;31;20079;-73
2023/01/23 09:51:13;;;;;;;8.07;3.67;;;;;;;9.19;100.00;99651.19;4514348;31;20182;-74
2023/01/23 09:53:41;;;;;;;7.90;3.90;;;;;;;9.06;100.00;99645.13;4501752;31;20134;-73
2023/01/23 09:56:32;;;;;;;9.00;4.32;;;;;;;9.14;100.00;99653.25;4520108;31;20104;-74
2023/01/23 09:59:10;;;;;;;7.47;3.87;;;;;;;9.24;100.00;99645.63;4512141;31;20452;-73
2023/01/23 10:01:37;;;;;;;6.95;3.85;;;;;;;9.20;100.00;99644.16;4517265;31;20111;-73
2023/01/23 10:04:06;;;;;;;11.32;3.95;;;;;;;9.34;100.00;99638.81;4501998;31;20095;-73
2023/01/23 10:06:47;;;;;;;9.38;4.05;;;;;;;9.28;100.00;99646.25;4507398;31;20460;-72
2023/01/23 10:09:26;;;;;;;6.03;3.03;;;;;;;9.38;100.00;99642.87;4517200;31;20092;-73
2023/01/23 10:12:00;;;;;;;8.27;4.43;;;;;;;9.33;100.00;99631.91;4518214;31;20511;-73
2023/01/23 10:14:55;;;;;;;8.43;3.80;;;;;;;9.62;100.00;99629.00;4502273;31;20119;-72
2023/01/23 10:17:25;;;;;;;11.77;3.75;;;;;;;9.64;100.00;99641.97;4514777;31;20091;-72
2023/01/23 10:20:20;;;;;;;9.85;4.95;;;;;;;9.33;100.00;99655.44;4517426;31;20104;-72
2023/01/23 10:23:05;;;;;;;9.07;4.18;;;;;;;9.37;100.00;99651.69;4522164;31;20479;-73
2023/01/23 10:25:36;;;;;;;6.12;3.50;;;;;;;9.65;100.00;99647.09;4501584;31;20138;-72
2023/01/23 10:28:15;;;;;;;6.05;3.72;;;;;;;9.74;100.00;99641.19;4517107;31;20103;-72
2023/01/23 10:30:48;;;;;;;5.37;2.97;;;;;;;9.42;100.00;99646.12;4515205;31;20448;-72
2023/01/23 10:33:17;;;;;;;8.38;3.83;;;;;;;9.43;100.00;99633.88;4512218;31;20540;-72
2023/01/23 10:35:52;;;;;;;9.70;4.72;;;;;;;9.49;100.00;99629.06;4516749;31;20130;-72
2023/01/23 10:38:57;;;;;;;10.05;3.90;;;;;;;9.47;100.00;99624.88;4516905;31;20142;-73
2023/01/23 10:41:25;;;;;;;8.40;3.25;;;;;;;9.37;100.00;99638.59;4443555;32;20502;-73
2023/01/23 10:43:53;;;;;;;8.35;4.22;;;;;;;9.41;100.00;99631.38;4431609;32;20602;-73
2023/01/23 10:46:31;;;;;;;9.30;4.00;;;;;;;9.44;100.00;99636.38;4433289;32;20108;-74
2023/01/23 10:49:00;;;;;;;7.90;4.05;;;;;;;9.37;100.00;99633.38;4444221;32;20140;-73
2023/01/23 10:51:29;;;;;;;7.72;3.80;;;;;;;9.34;100.00;99624.88;4444793;32;20101;-75
2023/01/23 10:54:04;;;;;;;7.78;4.70;;;;;;;9.39;100.00;99628.84;4444739;32;21992;-73
2023/01/23 10:56:35;;;;;;;7.87;4.30;;;;;;;9.40;100.00;99629.69;4443212;32;20129;-76
2023/01/23 10:59:05;;;;;;;6.18;3.83;;;;;;;9.39;100.00;99623.62;4449965;32;20105;-74
2023/01/23 11:01:34;;;;;;;8.30;4.62;;;;;;;9.35;100.00;99616.94;4426205;32;20142;-74
2023/01/23 11:04:17;;;;;;;8.73;4.72;;;;;;;9.39;100.00;99623.62;4444866;32;20143;-73
2023/01/23 11:06:59;;;;;;;12.63;4.93;;;;;;;9.40;100.00;99616.59;4430755;32;20105;-74
2023/01/23 11:09:27;;;;;;;11.82;5.00;;;;;;;9.56;100.00;99614.56;4444406;32;20135;-73
2023/01/23 11:12:05;;;;;;;7.10;3.92;;;;;;;9.74;100.00;99611.59;4443072;32;20147;-75
2023/01/23 11:14:32;;;;;;;8.98;4.20;;;;;;;9.91;100.00;99615.59;4456383;31;20465;-74
2023/01/23 11:17:14;;;;;;;8.63;4.30;;;;;;;9.71;100.00;99612.66;4521420;31;20162;-76
2023/01/23 11:19:42;;;;;;;7.37;3.97;;;;;;;9.80;100.00;99611.16;4519631;31;20583;-73
2023/01/23 11:22:32;;;;;;;9.77;4.12;;;;;;;9.87;100.00;99603.66;4519982;31;20537;-75
2023/01/23 11:24:59;;;;;;;8.23;4.25;;;;;;;10.05;100.00;99599.72;4510998;31;20103;-75
2023/01/23 11:27:29;;;;;;;12.00;4.22;;;;;;;10.09;100.00;99601.16;4506035;31;20439;-75
2023/01/23 11:30:18;;;;;;;8.48;4.00;;;;;;;9.93;100.00;99595.38;4516260;31;20798;-77
2023/01/23 11:32:54;;;;;;;8.10;4.03;;;;;;;9.98;100.00;99590.66;4506445;31;20127;-73
2023/01/23 11:35:26;;;;;;;6.75;3.65;;;;;;;10.08;100.00;99568.09;4508861;31;20455;-70
2023/01/23 11:37:55;;;;;;;8.15;3.97;;;;;;;10.24;100.00;99583.47;4517908;31;20083;-71
2023/01/23 11:40:22;;;;;;;6.37;3.22;;;;;;;10.35;100.00;99580.06;4516849;31;20099;-72
2023/01/23 11:42:51;;;;;;;6.82;3.42;;;;;;;10.18;100.00;99583.09;4525085;31;20092;-73
2023/01/23 11:45:42;;;;;;;7.87;3.12;;;;;;;10.03;100.00;99578.03;4505856;31;20083;-72
2023/01/23 11:48:34;;;;;;;8.23;3.40;;;;;;;9.98;100.00;99567.09;4518332;31;20143;-73
2023/01/23 11:51:06;;;;;;;7.40;3.60;;;;;;;10.11;100.00;99574.84;4506678;31;20096;-72
2023/01/23 11:53:43;;;;;;;5.57;2.33;;;;;;;9.99;100.00;99566.13;4520617;31;20163;-73